Decoded Metar for LKCV (CASLAV in CZECH REPUBLIC) (IATA:N/A) | Meteo·Mobile Aviation Weather
aviador You're here:

LKCV Decoded Metar

CASLAV in CZECH REPUBLIC
Report Time2019-11-13 19:00:00
UTC Time2019-11-13 19:25:21
Flight Rules mvfr MVFR
Wind240° at 05 kt
W.Decomp.*RWY 32: 0.6 kt HW 5 kt LCW
Visibility9999 m
Phenomena:Light Rain
Clouds:Broken 014 Hf
Overcast 040 Hf
Ceiling1,400 ft
Temp02°C (ISA -11)
Dew Point02°C (100% RH)
AAT-1.5°C
QNH1005 hPa
Density Alt-220 ft
Elevation794 ft
Report Wrong Elevation
Raw Report
LKCV 131900Z 24005KT 9999 -RA BKN014 OVC040 02/02 Q1005 NOSIG=

Extra information for LKCV:More info

Metar Taf Metar & Taf Last 4 Metars F.Rules Stats Wind Profile Meteogram Temp Stats Airport Information Weather charts Add Link Nearby VenuesMetar ALERT Operation Metar Decoded Social comments